Calvin, OK (74531)

2:21 PM CDT on March 24, 2017 (GMT -0500)
Emergency Operations Center | | Change Station
Active Advisory: Fire Weather Warning

Elev 908 ft 35.08 °N, 96.40 °W | Updated 60 seconds ago

Partly Cloudy
Partly Cloudy
70.7 °F
Feels Like 77 °F
N
0.0
Wind Variable Wind from North
Gusts 9.0 mph

Today
High -- | Low -- °F
--% Chance of Precip.
Yesterday
High -- | Low -- °F
Precip. -- in
Pressure 29.76 in
Visibility 10.0 miles
Clouds Clear
Heat Index 77 °F
Dew Point 53 °F
Humidity 54%
Rainfall 0.00 in
Snow Depth Not available.
7:22 AM 7:40 PM
Waning Crescent, 13% visible
METAR KADH 241915Z AUTO 16014G18KT 10SM CLR 23/08 A2976 RMK AO2 LTG DSNT E
Pressure 29.76 in
Visibility 10.0 miles
Clouds Clear
Heat Index 77 °F
Dew Point 53 °F
Humidity 54%
Rainfall 0.00 in
Snow Depth Not available.
7:22 AM 7:40 PM
Waning Crescent, 13% visible
METAR KADH 241915Z AUTO 16014G18KT 10SM CLR 23/08 A2976 RMK AO2 LTG DSNT E

Get Your Daily Forecast Email!

Thanks for signing up!

Be on the lookout for a verification email in your inbox.

You'll start receiving severe weather alerts in your inbox..

×

10-Day Weather Forecast

Almanac

Astronomy

Mar. 24, 2017 Rise Set
Actual Time
Civil Twilight
Nautical Twilight
Astronomical Twilight
Moon
Length of Visible Light
Length of Day
Tomorrow will be .
, % of the Moon is Illuminated

Today's Extremes

State Highs State Lows

Community

WunderPhotos

Upload Photos

1,962,540 photos uploaded!

WunderBlog® & News

Nearby

Air Quality

  Air Quality AQ Index Pollutant
Not available.

Snow Depth

Station Depth Elevation

Earthquake Activity

City Distance Mag. Time & Date
Minimum magnitude displayed is 2.5.

Earthquake Activity

City Distance Mag. Time & Date
Minimum magnitude displayed is 2.5.

Coastal Water Temperatures

Place Temperature

Stations

Nearby Weather Stations

Station Location Temp. Windchill Dew Point Humidity Wind Precip. Elev Updated Type
                   

Watches & Warnings

Fire Weather Warning
Issued: 3:51 AM CDT Mar. 24, 2017 – National Weather Service

... Red flag warning in effect from 11 am this morning to 7 PM CDT
this evening for windy conditions... warm temperatures... and low
relative humidity for western North Texas... and much of southern
and parts of central and northern Oklahoma...

The National Weather Service in Norman has issued a red flag
warning, which is in effect from 11 am this morning to 7 PM CDT
this evening. The Fire Weather Watch is no longer in effect.

* Wing... south to southwest winds 25 to 35 mph with gusts over 45
mph.

* Humidity... 15 to 20 percent

* temperature... 75 to 83 degrees

* impacts... any fires that develop will spread rapidly. Outdoor
burning is not recommended.